In Rescue
 
Open Full Screen Window  High Contrast Mode
Wind Gusting 00 knots
05
June 22, 2024 8:59 PM EDT
Present Weather: Rain
Weather Information
Wind Direction
  160 °
Wind Speed
  05 kt (6 mph)
Wind Gust
  00 kt (0 mph)
Altimeter
29.67 in
Visibility
3 SM
Temperature
19° C
66° F
Dewpoint
18° C
64° F
Humidity
94%
Sky Condition
Overcast @ 500 ft
IFR

METAR KPZQ 230059Z AUTO 16005KT 3SM RA OVC005 19/18 A2967 RMK AO2 T01860180

FAA Disclaimer: The data displayed is for advisory purposes only and is not to be used for flight planning or operations.